< < Back
Terminal Aerodrome Forecast


Current Version              Previous Versions:   1  2  3  4  5  6  7  8  9  

Terminal Aerodrome Forecast

792
FTUS44 KMRX 232321
TAFTYS
TAF
KTYS 232321Z 2400/2424 30010KT P6SM SCT250
     FM240400 34004KT P6SM SCT250
     FM241500 04006KT P6SM FEW060 BKN250
     FM242200 VRB03KT P6SM SCT050 BKN150=



Latest METAR

053
SAUS80 KWBC 250000 RRB
MTRTYS
METAR KTYS 242353Z 00000KT 10SM FEW150 OVC200 17/M01 A2997 RMK AO2
SLP147 T01721011 10189 20172 58003


USA.gov is the U.S. government's official web portal to all federal, state and local government web resources and services.